Location Glendale, AZ, US

ob KWR6634 281430Z AUTO 03000KT FEW200 09/02 A3014 RMK SLPNO 

2020.03.28 1430 UTC
Wind from the NE (32 degrees) at Calm MPH ( KT) gusting to 0.0 MPH (0 KT)
Visibility    Mile(s)
Sky Conditions  partly cloudy
Temperature 48.40 F (9 C)
Dew Point 35.59 F (2 C)
Relative Humidity 61%
Pressure   30.14 in. Hg (1021 hPa)
Rain  0.00 in.
Daily Rain  in.

Station Name  My Glendale Arizona Weather Station
Longitude, Latitude  -112.20133199999998, 33.58645
Elevation 1180
Station URL www.myglendalewxs.com
Software Type VWS V15.00